Terminal Aerodrome Forecast
Issued by NWS

Home | Current Version | Previous Version | Text Only | Print | Product List | Glossary On
Versions: 1 2 3 4 5 6 7 8 9 10 11 12 13 14
500
FTUS46 KMTR 021739
TAFSNS
TAF
KSNS 021739Z 0218/0318 30006KT P6SM FEW016
     FM022000 30010KT P6SM SCT200
     FM030200 30008KT P6SM BKN010
     FM030400 12003KT P6SM OVC007
     FM031600 12005KT P6SM OVC010=

USA.gov is the U.S. government's official web portal to all federal, state and local government web resources and services.